sensor_id;sensor_type;location;lat;lon;timestamp;pressure;altitude;pressure_sealevel;temperature;humidity
17311;BME280;8773;43.300;0.394;2024-02-26T00:00:18;98034.81;;;9.75;100.00
17311;BME280;8773;43.300;0.394;2024-02-26T00:02:47;98030.50;;;9.74;100.00
17311;BME280;8773;43.300;0.394;2024-02-26T00:05:14;98032.03;;;9.83;100.00
17311;BME280;8773;43.300;0.394;2024-02-26T00:07:41;98025.69;;;9.84;100.00
17311;BME280;8773;43.300;0.394;2024-02-26T00:10:09;98032.47;;;9.87;100.00
17311;BME280;8773;43.300;0.394;2024-02-26T00:12:36;98021.81;;;9.87;100.00
17311;BME280;8773;43.300;0.394;2024-02-26T00:15:04;98022.66;;;9.87;100.00
17311;BME280;8773;43.300;0.394;2024-02-26T00:17:32;98022.41;;;9.82;100.00
17311;BME280;8773;43.300;0.394;2024-02-26T00:20:01;98021.75;;;9.80;100.00
17311;BME280;8773;43.300;0.394;2024-02-26T00:22:28;98011.94;;;9.81;99.49
17311;BME280;8773;43.300;0.394;2024-02-26T00:24:55;98019.47;;;9.77;97.37
17311;BME280;8773;43.300;0.394;2024-02-26T00:27:23;98017.63;;;9.78;97.46
17311;BME280;8773;43.300;0.394;2024-02-26T00:29:50;97996.25;;;9.71;98.10
17311;BME280;8773;43.300;0.394;2024-02-26T00:32:18;98012.13;;;9.79;98.40
17311;BME280;8773;43.300;0.394;2024-02-26T00:34:45;98009.91;;;9.83;97.10
17311;BME280;8773;43.300;0.394;2024-02-26T00:37:14;98015.72;;;9.93;95.38
17311;BME280;8773;43.300;0.394;2024-02-26T00:39:41;98008.38;;;9.95;94.08
17311;BME280;8773;43.300;0.394;2024-02-26T00:42:08;98012.28;;;9.99;93.93
17311;BME280;8773;43.300;0.394;2024-02-26T00:44:36;98001.00;;;9.97;94.72
17311;BME280;8773;43.300;0.394;2024-02-26T00:47:03;97999.34;;;9.96;93.99
17311;BME280;8773;43.300;0.394;2024-02-26T00:49:30;98000.75;;;9.92;90.89
17311;BME280;8773;43.300;0.394;2024-02-26T00:51:58;97979.44;;;9.92;90.26
17311;BME280;8773;43.300;0.394;2024-02-26T00:54:27;97984.56;;;9.93;89.25
17311;BME280;8773;43.300;0.394;2024-02-26T00:56:54;97986.66;;;9.98;89.08
17311;BME280;8773;43.300;0.394;2024-02-26T00:59:21;97978.22;;;9.94;87.60
17311;BME280;8773;43.300;0.394;2024-02-26T01:01:49;97979.69;;;9.97;87.31
17311;BME280;8773;43.300;0.394;2024-02-26T01:04:16;97987.88;;;10.02;85.71
17311;BME280;8773;43.300;0.394;2024-02-26T01:06:43;97973.34;;;10.05;82.46
17311;BME280;8773;43.300;0.394;2024-02-26T01:09:11;97975.53;;;10.16;82.62
17311;BME280;8773;43.300;0.394;2024-02-26T01:11:40;97980.69;;;10.24;82.56
17311;BME280;8773;43.300;0.394;2024-02-26T01:14:07;97971.28;;;10.28;81.28
17311;BME280;8773;43.300;0.394;2024-02-26T01:16:34;97960.25;;;10.31;80.99
17311;BME280;8773;43.300;0.394;2024-02-26T01:19:02;97962.75;;;10.39;80.96
17311;BME280;8773;43.300;0.394;2024-02-26T01:21:29;97956.22;;;10.42;80.17
17311;BME280;8773;43.300;0.394;2024-02-26T01:23:57;97957.41;;;10.39;80.63
17311;BME280;8773;43.300;0.394;2024-02-26T01:26:24;97966.19;;;10.33;80.45
17311;BME280;8773;43.300;0.394;2024-02-26T01:28:53;97962.31;;;10.36;81.57
17311;BME280;8773;43.300;0.394;2024-02-26T01:31:20;97959.38;;;10.24;82.38
17311;BME280;8773;43.300;0.394;2024-02-26T01:33:47;97955.69;;;10.25;82.32
17311;BME280;8773;43.300;0.394;2024-02-26T01:36:15;97956.16;;;10.35;80.86
17311;BME280;8773;43.300;0.394;2024-02-26T01:38:42;97952.72;;;10.41;81.17
17311;BME280;8773;43.300;0.394;2024-02-26T01:41:10;97944.13;;;10.52;80.30
17311;BME280;8773;43.300;0.394;2024-02-26T01:43:37;97953.00;;;10.59;80.11
17311;BME280;8773;43.300;0.394;2024-02-26T01:46:09;97955.50;;;10.68;79.50
17311;BME280;8773;43.300;0.394;2024-02-26T01:48:38;97961.66;;;10.68;79.36
17311;BME280;8773;43.300;0.394;2024-02-26T01:51:05;97964.72;;;10.65;80.51
17311;BME280;8773;43.300;0.394;2024-02-26T01:53:33;97972.28;;;10.61;81.49
17311;BME280;8773;43.300;0.394;2024-02-26T01:56:01;97969.47;;;10.70;81.71
17311;BME280;8773;43.300;0.394;2024-02-26T01:58:29;97967.63;;;10.70;83.24
17311;BME280;8773;43.300;0.394;2024-02-26T02:00:57;97974.41;;;10.73;83.56
17311;BME280;8773;43.300;0.394;2024-02-26T02:03:26;97970.09;;;10.72;84.58
17311;BME280;8773;43.300;0.394;2024-02-26T02:05:53;97974.53;;;10.58;85.81
17311;BME280;8773;43.300;0.394;2024-02-26T02:08:21;97969.94;;;10.39;86.36
17311;BME280;8773;43.300;0.394;2024-02-26T02:10:50;97970.75;;;10.39;85.32
17311;BME280;8773;43.300;0.394;2024-02-26T02:13:18;97959.84;;;10.34;84.22
17311;BME280;8773;43.300;0.394;2024-02-26T02:15:45;97959.47;;;10.37;85.89
17311;BME280;8773;43.300;0.394;2024-02-26T02:18:12;97963.16;;;10.36;84.35
17311;BME280;8773;43.300;0.394;2024-02-26T02:20:41;97970.13;;;10.37;85.36
17311;BME280;8773;43.300;0.394;2024-02-26T02:23:09;97971.34;;;10.35;85.74
17311;BME280;8773;43.300;0.394;2024-02-26T02:25:36;97982.84;;;10.35;85.88
17311;BME280;8773;43.300;0.394;2024-02-26T02:28:04;97994.63;;;10.19;88.61
17311;BME280;8773;43.300;0.394;2024-02-26T02:30:32;98004.59;;;10.11;93.20
17311;BME280;8773;43.300;0.394;2024-02-26T02:32:59;97999.28;;;10.11;94.30
17311;BME280;8773;43.300;0.394;2024-02-26T02:35:27;98005.16;;;10.06;96.67
17311;BME280;8773;43.300;0.394;2024-02-26T02:37:58;98002.97;;;9.88;99.07
17311;BME280;8773;43.300;0.394;2024-02-26T02:40:25;97989.06;;;9.93;99.43
17311;BME280;8773;43.300;0.394;2024-02-26T02:42:52;97975.19;;;9.76;99.70
17311;BME280;8773;43.300;0.394;2024-02-26T02:45:20;97986.63;;;9.70;100.00
17311;BME280;8773;43.300;0.394;2024-02-26T02:47:47;97978.56;;;9.63;99.98
17311;BME280;8773;43.300;0.394;2024-02-26T02:50:15;97993.97;;;9.68;99.12
17311;BME280;8773;43.300;0.394;2024-02-26T02:52:42;97993.22;;;9.74;98.96
17311;BME280;8773;43.300;0.394;2024-02-26T02:55:11;97991.75;;;9.72;99.05
17311;BME280;8773;43.300;0.394;2024-02-26T02:57:39;97981.22;;;9.85;98.28
17311;BME280;8773;43.300;0.394;2024-02-26T03:00:07;97983.56;;;9.73;98.35
17311;BME280;8773;43.300;0.394;2024-02-26T03:02:34;98002.47;;;9.78;98.27
17311;BME280;8773;43.300;0.394;2024-02-26T03:05:02;97994.72;;;9.83;97.84
17311;BME280;8773;43.300;0.394;2024-02-26T03:07:30;97999.94;;;9.91;97.39
17311;BME280;8773;43.300;0.394;2024-02-26T03:09:57;97993.59;;;9.92;97.61
17311;BME280;8773;43.300;0.394;2024-02-26T03:12:26;97988.09;;;10.01;96.18
17311;BME280;8773;43.300;0.394;2024-02-26T03:14:53;97996.16;;;10.07;97.64
17311;BME280;8773;43.300;0.394;2024-02-26T03:17:21;97995.97;;;10.09;96.30
17311;BME280;8773;43.300;0.394;2024-02-26T03:19:48;97996.84;;;10.16;96.25
17311;BME280;8773;43.300;0.394;2024-02-26T03:22:16;98000.34;;;10.16;96.68
17311;BME280;8773;43.300;0.394;2024-02-26T03:24:43;97988.41;;;10.12;96.02
17311;BME280;8773;43.300;0.394;2024-02-26T03:27:10;97995.97;;;10.09;96.66
17311;BME280;8773;43.300;0.394;2024-02-26T03:29:40;97985.22;;;10.02;96.64
17311;BME280;8773;43.300;0.394;2024-02-26T03:32:07;97988.63;;;9.89;98.29
17311;BME280;8773;43.300;0.394;2024-02-26T03:34:35;97988.31;;;9.78;98.15
17311;BME280;8773;43.300;0.394;2024-02-26T03:37:02;97987.63;;;9.69;98.94
17311;BME280;8773;43.300;0.394;2024-02-26T03:39:30;97986.38;;;9.65;98.81
17311;BME280;8773;43.300;0.394;2024-02-26T03:41:57;97988.78;;;9.60;99.37
17311;BME280;8773;43.300;0.394;2024-02-26T03:44:25;97990.44;;;9.61;99.61
17311;BME280;8773;43.300;0.394;2024-02-26T03:46:53;97992.03;;;9.55;100.00
17311;BME280;8773;43.300;0.394;2024-02-26T03:49:21;98008.25;;;9.60;100.00
17311;BME280;8773;43.300;0.394;2024-02-26T03:51:48;98014.19;;;9.56;100.00
17311;BME280;8773;43.300;0.394;2024-02-26T03:54:16;98010.97;;;9.67;100.00
17311;BME280;8773;43.300;0.394;2024-02-26T03:56:43;98013.44;;;9.69;100.00
17311;BME280;8773;43.300;0.394;2024-02-26T03:59:10;98029.06;;;9.72;100.00
17311;BME280;8773;43.300;0.394;2024-02-26T04:01:38;98034.81;;;9.75;100.00
17311;BME280;8773;43.300;0.394;2024-02-26T04:04:07;98041.94;;;9.68;100.00
17311;BME280;8773;43.300;0.394;2024-02-26T04:06:34;98032.19;;;9.54;100.00
17311;BME280;8773;43.300;0.394;2024-02-26T04:09:02;98051.84;;;9.53;100.00
17311;BME280;8773;43.300;0.394;2024-02-26T04:11:29;98036.44;;;9.48;100.00
17311;BME280;8773;43.300;0.394;2024-02-26T04:13:57;98033.69;;;9.42;100.00
17311;BME280;8773;43.300;0.394;2024-02-26T04:16:24;98029.84;;;9.29;100.00
17311;BME280;8773;43.300;0.394;2024-02-26T04:18:51;98021.34;;;9.19;100.00
17311;BME280;8773;43.300;0.394;2024-02-26T04:21:20;98020.06;;;9.15;100.00
17311;BME280;8773;43.300;0.394;2024-02-26T04:23:47;98033.00;;;9.18;100.00
17311;BME280;8773;43.300;0.394;2024-02-26T04:26:15;98033.38;;;9.15;100.00
17311;BME280;8773;43.300;0.394;2024-02-26T04:28:42;98011.03;;;9.10;100.00
17311;BME280;8773;43.300;0.394;2024-02-26T04:31:09;98005.09;;;9.14;100.00
17311;BME280;8773;43.300;0.394;2024-02-26T04:33:37;98009.19;;;9.10;100.00
17311;BME280;8773;43.300;0.394;2024-02-26T04:36:05;98027.38;;;9.07;100.00
17311;BME280;8773;43.300;0.394;2024-02-26T04:38:34;98041.13;;;9.10;100.00
17311;BME280;8773;43.300;0.394;2024-02-26T04:41:01;98033.00;;;9.18;100.00
17311;BME280;8773;43.300;0.394;2024-02-26T04:43:28;98026.03;;;9.17;100.00
17311;BME280;8773;43.300;0.394;2024-02-26T04:45:56;98034.16;;;9.09;100.00
17311;BME280;8773;43.300;0.394;2024-02-26T04:48:23;98043.16;;;9.08;100.00
17311;BME280;8773;43.300;0.394;2024-02-26T04:50:51;98045.34;;;9.05;100.00
17311;BME280;8773;43.300;0.394;2024-02-26T04:53:18;98045.72;;;9.02;100.00
17311;BME280;8773;43.300;0.394;2024-02-26T04:55:47;98030.97;;;9.20;100.00
17311;BME280;8773;43.300;0.394;2024-02-26T04:58:14;98052.66;;;9.17;100.00
17311;BME280;8773;43.300;0.394;2024-02-26T05:00:41;98041.38;;;9.15;100.00
17311;BME280;8773;43.300;0.394;2024-02-26T05:03:09;98046.19;;;9.05;100.00
17311;BME280;8773;43.300;0.394;2024-02-26T05:05:37;98046.38;;;8.89;100.00
17311;BME280;8773;43.300;0.394;2024-02-26T05:08:04;98061.25;;;8.83;100.00
17311;BME280;8773;43.300;0.394;2024-02-26T05:10:32;98064.81;;;8.76;100.00
17311;BME280;8773;43.300;0.394;2024-02-26T05:13:00;98058.41;;;8.70;100.00
17311;BME280;8773;43.300;0.394;2024-02-26T05:15:28;98063.81;;;8.77;100.00
17311;BME280;8773;43.300;0.394;2024-02-26T05:17:55;98051.34;;;8.77;100.00
17311;BME280;8773;43.300;0.394;2024-02-26T05:20:23;98059.41;;;8.84;100.00
17311;BME280;8773;43.300;0.394;2024-02-26T05:22:50;98051.25;;;8.85;100.00
17311;BME280;8773;43.300;0.394;2024-02-26T05:25:17;98061.16;;;8.91;100.00
17311;BME280;8773;43.300;0.394;2024-02-26T05:27:45;98069.22;;;8.98;100.00
17311;BME280;8773;43.300;0.394;2024-02-26T05:30:14;98078.94;;;9.06;100.00
17311;BME280;8773;43.300;0.394;2024-02-26T05:32:42;98073.91;;;8.96;100.00
17311;BME280;8773;43.300;0.394;2024-02-26T05:35:09;98073.25;;;8.94;100.00
17311;BME280;8773;43.300;0.394;2024-02-26T05:37:37;98076.19;;;8.99;100.00
17311;BME280;8773;43.300;0.394;2024-02-26T05:40:06;98078.94;;;9.06;100.00
17311;BME280;8773;43.300;0.394;2024-02-26T05:42:33;98083.91;;;9.09;100.00
17311;BME280;8773;43.300;0.394;2024-02-26T05:45:00;98084.97;;;9.14;100.00
17311;BME280;8773;43.300;0.394;2024-02-26T05:47:29;98073.31;;;9.15;100.00
17311;BME280;8773;43.300;0.394;2024-02-26T05:49:57;98080.66;;;9.13;100.00
17311;BME280;8773;43.300;0.394;2024-02-26T05:52:24;98096.38;;;9.08;100.00
17311;BME280;8773;43.300;0.394;2024-02-26T05:54:53;98101.06;;;8.91;100.00
17311;BME280;8773;43.300;0.394;2024-02-26T05:57:20;98086.47;;;8.87;100.00
17311;BME280;8773;43.300;0.394;2024-02-26T05:59:48;98088.47;;;8.71;100.00
17311;BME280;8773;43.300;0.394;2024-02-26T06:02:15;98093.53;;;8.66;100.00
17311;BME280;8773;43.300;0.394;2024-02-26T06:04:44;98085.56;;;8.66;100.00
17311;BME280;8773;43.300;0.394;2024-02-26T06:07:11;98093.72;;;8.64;100.00
17311;BME280;8773;43.300;0.394;2024-02-26T06:09:39;98092.06;;;8.63;100.00
17311;BME280;8773;43.300;0.394;2024-02-26T06:12:06;98084.38;;;8.68;100.00
17311;BME280;8773;43.300;0.394;2024-02-26T06:14:34;98084.28;;;8.61;100.00
17311;BME280;8773;43.300;0.394;2024-02-26T06:17:01;98087.22;;;8.67;100.00
17311;BME280;8773;43.300;0.394;2024-02-26T06:19:29;98094.06;;;8.76;100.00
17311;BME280;8773;43.300;0.394;2024-02-26T06:21:57;98097.94;;;8.73;99.47
17311;BME280;8773;43.300;0.394;2024-02-26T06:24:25;98099.50;;;8.68;99.18
17311;BME280;8773;43.300;0.394;2024-02-26T06:26:52;98092.53;;;8.67;99.25
17311;BME280;8773;43.300;0.394;2024-02-26T06:29:20;98093.63;;;8.72;98.13
17311;BME280;8773;43.300;0.394;2024-02-26T06:31:47;98094.91;;;8.61;98.57
17311;BME280;8773;43.300;0.394;2024-02-26T06:34:14;98093.25;;;8.60;98.73
17311;BME280;8773;43.300;0.394;2024-02-26T06:36:42;98094.19;;;8.68;96.88
17311;BME280;8773;43.300;0.394;2024-02-26T06:39:11;98086.84;;;8.70;95.84
17311;BME280;8773;43.300;0.394;2024-02-26T06:41:38;98086.00;;;8.84;95.84
17311;BME280;8773;43.300;0.394;2024-02-26T06:44:05;98073.44;;;8.78;93.85
17311;BME280;8773;43.300;0.394;2024-02-26T06:46:33;98075.09;;;8.79;92.42
17311;BME280;8773;43.300;0.394;2024-02-26T06:49:00;98061.44;;;8.67;93.55
17311;BME280;8773;43.300;0.394;2024-02-26T06:51:28;98068.31;;;8.76;93.20
17311;BME280;8773;43.300;0.394;2024-02-26T06:53:55;98066.28;;;8.78;91.28
17311;BME280;8773;43.300;0.394;2024-02-26T06:56:24;98069.03;;;8.85;90.63
17311;BME280;8773;43.300;0.394;2024-02-26T06:58:51;98077.00;;;8.70;91.29
17311;BME280;8773;43.300;0.394;2024-02-26T07:01:18;98077.28;;;8.90;91.62
17311;BME280;8773;43.300;0.394;2024-02-26T07:03:46;98076.75;;;8.94;90.21
17311;BME280;8773;43.300;0.394;2024-02-26T07:06:13;98086.66;;;9.01;89.76
17311;BME280;8773;43.300;0.394;2024-02-26T07:08:41;98093.34;;;9.11;89.74
17311;BME280;8773;43.300;0.394;2024-02-26T07:11:08;98104.81;;;9.12;89.32
17311;BME280;8773;43.300;0.394;2024-02-26T07:13:37;98106.19;;;9.08;90.66
17311;BME280;8773;43.300;0.394;2024-02-26T07:16:05;98101.50;;;8.80;92.06
17311;BME280;8773;43.300;0.394;2024-02-26T07:18:33;98106.72;;;8.74;90.69
17311;BME280;8773;43.300;0.394;2024-02-26T07:21:01;98113.53;;;8.76;90.77
17311;BME280;8773;43.300;0.394;2024-02-26T07:23:29;98103.34;;;8.80;91.67
17311;BME280;8773;43.300;0.394;2024-02-26T07:25:56;98112.16;;;8.80;91.29
17311;BME280;8773;43.300;0.394;2024-02-26T07:28:24;98105.19;;;8.65;90.14
17311;BME280;8773;43.300;0.394;2024-02-26T07:30:53;98102.16;;;8.68;89.43
17311;BME280;8773;43.300;0.394;2024-02-26T07:33:20;98103.59;;;8.70;86.46
17311;BME280;8773;43.300;0.394;2024-02-26T07:35:48;98114.72;;;8.88;84.63
17311;BME280;8773;43.300;0.394;2024-02-26T07:38:15;98117.66;;;9.08;83.75
17311;BME280;8773;43.300;0.394;2024-02-26T07:40:58;98119.63;;;9.50;80.95
17311;BME280;8773;43.300;0.394;2024-02-26T07:43:30;98106.19;;;9.80;79.73
17311;BME280;8773;43.300;0.394;2024-02-26T07:45:58;98113.13;;;9.95;76.75
17311;BME280;8773;43.300;0.394;2024-02-26T07:48:26;98108.88;;;9.80;79.00
17311;BME280;8773;43.300;0.394;2024-02-26T07:50:53;98124.72;;;9.88;75.17
17311;BME280;8773;43.300;0.394;2024-02-26T07:53:21;98137.56;;;9.99;75.38
17311;BME280;8773;43.300;0.394;2024-02-26T07:55:48;98112.66;;;9.71;72.67
17311;BME280;8773;43.300;0.394;2024-02-26T07:58:16;98121.53;;;9.78;74.04
17311;BME280;8773;43.300;0.394;2024-02-26T08:00:43;98109.88;;;10.00;71.93
17311;BME280;8773;43.300;0.394;2024-02-26T08:03:12;98125.56;;;9.88;71.51
17311;BME280;8773;43.300;0.394;2024-02-26T08:05:39;98119.09;;;9.98;70.23
17311;BME280;8773;43.300;0.394;2024-02-26T08:08:07;98120.75;;;9.99;71.16
17311;BME280;8773;43.300;0.394;2024-02-26T08:10:34;98131.53;;;10.12;70.93
17311;BME280;8773;43.300;0.394;2024-02-26T08:13:02;98126.47;;;10.17;69.77
17311;BME280;8773;43.300;0.394;2024-02-26T08:15:29;98126.53;;;10.23;69.57
17311;BME280;8773;43.300;0.394;2024-02-26T08:17:57;98136.88;;;10.12;69.64
17311;BME280;8773;43.300;0.394;2024-02-26T08:20:25;98132.66;;;10.03;70.26
17311;BME280;8773;43.300;0.394;2024-02-26T08:22:53;98132.66;;;10.03;69.27
17311;BME280;8773;43.300;0.394;2024-02-26T08:25:20;98145.50;;;10.14;69.62
17311;BME280;8773;43.300;0.394;2024-02-26T08:27:47;98143.72;;;10.00;72.88
17311;BME280;8773;43.300;0.394;2024-02-26T08:30:16;98150.63;;;9.94;72.28
17311;BME280;8773;43.300;0.394;2024-02-26T08:32:43;98135.31;;;9.81;71.35
17311;BME280;8773;43.300;0.394;2024-02-26T08:35:12;98133.06;;;9.63;71.12
17311;BME280;8773;43.300;0.394;2024-02-26T08:37:44;98127.47;;;9.58;72.60
17311;BME280;8773;43.300;0.394;2024-02-26T08:40:12;98124.66;;;9.81;73.71
17311;BME280;8773;43.300;0.394;2024-02-26T08:42:39;98132.00;;;10.01;71.89
17311;BME280;8773;43.300;0.394;2024-02-26T08:45:07;98127.81;;;10.27;70.21
17311;BME280;8773;43.300;0.394;2024-02-26T08:47:35;98130.38;;;10.70;69.15
17311;BME280;8773;43.300;0.394;2024-02-26T08:50:04;98130.69;;;10.88;69.02
17311;BME280;8773;43.300;0.394;2024-02-26T08:52:31;98125.41;;;10.95;66.06
17311;BME280;8773;43.300;0.394;2024-02-26T08:55:00;98111.50;;;10.72;65.23
17311;BME280;8773;43.300;0.394;2024-02-26T08:57:28;98110.44;;;10.66;65.98
17311;BME280;8773;43.300;0.394;2024-02-26T08:59:55;98092.34;;;10.61;65.10
17311;BME280;8773;43.300;0.394;2024-02-26T09:02:22;98105.63;;;10.83;66.38
17311;BME280;8773;43.300;0.394;2024-02-26T09:04:50;98095.16;;;10.81;64.49
17311;BME280;8773;43.300;0.394;2024-02-26T09:07:17;98103.34;;;10.80;65.09
17311;BME280;8773;43.300;0.394;2024-02-26T09:09:45;98098.38;;;11.11;63.84
17311;BME280;8773;43.300;0.394;2024-02-26T09:12:13;98103.22;;;11.42;62.02
17311;BME280;8773;43.300;0.394;2024-02-26T09:14:41;98107.00;;;11.48;61.24
17311;BME280;8773;43.300;0.394;2024-02-26T09:17:08;98100.28;;;11.65;59.29
17311;BME280;8773;43.300;0.394;2024-02-26T09:19:36;98107.06;;;11.68;60.16
17311;BME280;8773;43.300;0.394;2024-02-26T09:22:03;98114.63;;;11.57;58.67
17311;BME280;8773;43.300;0.394;2024-02-26T09:24:30;98108.75;;;11.34;58.08
17311;BME280;8773;43.300;0.394;2024-02-26T09:26:58;98108.13;;;11.25;59.33
17311;BME280;8773;43.300;0.394;2024-02-26T09:29:27;98120.84;;;11.30;59.06
17311;BME280;8773;43.300;0.394;2024-02-26T09:31:54;98105.44;;;11.32;59.67
17311;BME280;8773;43.300;0.394;2024-02-26T09:34:21;98121.31;;;11.40;58.22
17311;BME280;8773;43.300;0.394;2024-02-26T09:36:49;98107.81;;;11.48;58.78
17311;BME280;8773;43.300;0.394;2024-02-26T09:39:16;98092.22;;;11.58;58.04
17311;BME280;8773;43.300;0.394;2024-02-26T09:41:46;98097.25;;;11.94;58.59
17311;BME280;8773;43.300;0.394;2024-02-26T09:44:17;98087.53;;;11.80;55.69
17311;BME280;8773;43.300;0.394;2024-02-26T09:46:47;98093.53;;;11.95;56.71
17311;BME280;8773;43.300;0.394;2024-02-26T09:49:15;98076.25;;;12.18;56.58
17311;BME280;8773;43.300;0.394;2024-02-26T09:51:43;98071.75;;;12.51;54.75
17311;BME280;8773;43.300;0.394;2024-02-26T09:54:12;98075.66;;;12.55;53.67
17311;BME280;8773;43.300;0.394;2024-02-26T09:56:41;98081.19;;;12.80;53.93
17311;BME280;8773;43.300;0.394;2024-02-26T09:59:22;98076.88;;;12.79;53.25
17311;BME280;8773;43.300;0.394;2024-02-26T10:01:52;98072.75;;;12.83;53.27
17311;BME280;8773;43.300;0.394;2024-02-26T10:04:20;98079.13;;;12.89;52.31
17311;BME280;8773;43.300;0.394;2024-02-26T10:06:48;98075.22;;;12.72;53.19
17311;BME280;8773;43.300;0.394;2024-02-26T10:09:16;98078.31;;;12.75;52.51
17311;BME280;8773;43.300;0.394;2024-02-26T10:11:44;98059.41;;;12.24;51.87
17311;BME280;8773;43.300;0.394;2024-02-26T10:14:12;98083.28;;;12.32;52.15
17311;BME280;8773;43.300;0.394;2024-02-26T10:16:39;98057.75;;;12.36;52.74
17311;BME280;8773;43.300;0.394;2024-02-26T10:19:08;98080.78;;;12.77;51.89
17311;BME280;8773;43.300;0.394;2024-02-26T10:21:36;98072.13;;;12.75;50.44
17311;BME280;8773;43.300;0.394;2024-02-26T10:24:04;98073.38;;;12.59;50.59
17311;BME280;8773;43.300;0.394;2024-02-26T10:26:45;98062.47;;;12.47;50.11
17311;BME280;8773;43.300;0.394;2024-02-26T10:29:13;98077.50;;;12.35;51.42
17311;BME280;8773;43.300;0.394;2024-02-26T10:31:42;98053.22;;;12.50;51.22
17311;BME280;8773;43.300;0.394;2024-02-26T10:34:10;98068.19;;;12.64;50.75
17311;BME280;8773;43.300;0.394;2024-02-26T10:36:38;98068.81;;;12.86;50.72
17311;BME280;8773;43.300;0.394;2024-02-26T10:39:18;98076.56;;;13.14;50.01
17311;BME280;8773;43.300;0.394;2024-02-26T10:41:46;98068.66;;;13.32;49.22
17311;BME280;8773;43.300;0.394;2024-02-26T10:44:13;98069.78;;;13.05;49.91
17311;BME280;8773;43.300;0.394;2024-02-26T10:46:46;98067.06;;;13.11;49.87
17311;BME280;8773;43.300;0.394;2024-02-26T10:49:16;98065.84;;;13.07;50.56
17311;BME280;8773;43.300;0.394;2024-02-26T10:51:44;98068.53;;;13.07;51.16
17311;BME280;8773;43.300;0.394;2024-02-26T10:54:15;98062.06;;;13.28;49.66
17311;BME280;8773;43.300;0.394;2024-02-26T10:56:44;98049.16;;;13.50;49.33
17311;BME280;8773;43.300;0.394;2024-02-26T10:59:14;98057.97;;;13.25;48.82
17311;BME280;8773;43.300;0.394;2024-02-26T11:01:43;98058.84;;;13.13;48.79
17311;BME280;8773;43.300;0.394;2024-02-26T11:04:11;98060.50;;;13.07;49.47
17311;BME280;8773;43.300;0.394;2024-02-26T11:06:41;98046.44;;;13.18;50.35
17311;BME280;8773;43.300;0.394;2024-02-26T11:09:11;98058.28;;;12.98;50.47
17311;BME280;8773;43.300;0.394;2024-02-26T11:11:40;98054.38;;;13.00;49.26
17311;BME280;8773;43.300;0.394;2024-02-26T11:14:08;98051.81;;;13.12;49.32
17311;BME280;8773;43.300;0.394;2024-02-26T11:16:37;98048.50;;;13.23;49.25
17311;BME280;8773;43.300;0.394;2024-02-26T11:19:06;98045.31;;;13.01;49.51
17311;BME280;8773;43.300;0.394;2024-02-26T11:21:35;98050.78;;;13.19;49.38
17311;BME280;8773;43.300;0.394;2024-02-26T11:24:05;98054.72;;;13.10;49.47
17311;BME280;8773;43.300;0.394;2024-02-26T11:26:34;98048.97;;;13.07;48.76
17311;BME280;8773;43.300;0.394;2024-02-26T11:29:03;98055.13;;;13.14;49.68
17311;BME280;8773;43.300;0.394;2024-02-26T11:31:32;98057.22;;;13.05;49.43
17311;BME280;8773;43.300;0.394;2024-02-26T11:34:03;98058.66;;;13.08;49.72
17311;BME280;8773;43.300;0.394;2024-02-26T11:36:31;98056.16;;;13.06;50.42
17311;BME280;8773;43.300;0.394;2024-02-26T11:38:59;98059.19;;;13.30;49.73
17311;BME280;8773;43.300;0.394;2024-02-26T11:41:28;98052.47;;;13.52;49.49
17311;BME280;8773;43.300;0.394;2024-02-26T11:43:58;98052.34;;;13.40;51.24
17311;BME280;8773;43.300;0.394;2024-02-26T11:46:27;98069.50;;;13.26;51.06
17311;BME280;8773;43.300;0.394;2024-02-26T11:48:58;98055.91;;;13.27;51.61
17311;BME280;8773;43.300;0.394;2024-02-26T11:51:26;98060.47;;;13.58;51.53
17311;BME280;8773;43.300;0.394;2024-02-26T11:53:54;98050.41;;;13.47;53.04
17311;BME280;8773;43.300;0.394;2024-02-26T11:56:23;98064.00;;;13.52;51.76
17311;BME280;8773;43.300;0.394;2024-02-26T11:59:01;98056.72;;;13.66;52.15
17311;BME280;8773;43.300;0.394;2024-02-26T12:01:39;98053.25;;;13.59;51.75
17311;BME280;8773;43.300;0.394;2024-02-26T12:04:11;98058.22;;;13.93;51.31
17311;BME280;8773;43.300;0.394;2024-02-26T12:06:42;98048.88;;;14.03;50.89
17311;BME280;8773;43.300;0.394;2024-02-26T12:09:10;98051.56;;;14.28;50.60
17311;BME280;8773;43.300;0.394;2024-02-26T12:11:38;98034.59;;;14.09;50.48
17311;BME280;8773;43.300;0.394;2024-02-26T12:14:08;98032.81;;;13.96;49.92
17311;BME280;8773;43.300;0.394;2024-02-26T12:16:37;98027.66;;;14.44;49.39
17311;BME280;8773;43.300;0.394;2024-02-26T12:19:06;98027.63;;;14.26;48.39
17311;BME280;8773;43.300;0.394;2024-02-26T12:21:35;98029.78;;;13.86;48.16
17311;BME280;8773;43.300;0.394;2024-02-26T12:24:12;98021.69;;;13.92;48.37
17311;BME280;8773;43.300;0.394;2024-02-26T12:26:40;98020.28;;;13.90;50.14
17311;BME280;8773;43.300;0.394;2024-02-26T12:29:09;98021.34;;;13.82;49.18
17311;BME280;8773;43.300;0.394;2024-02-26T12:31:36;98031.94;;;13.71;48.88
17311;BME280;8773;43.300;0.394;2024-02-26T12:34:04;98034.47;;;13.59;49.06
17311;BME280;8773;43.300;0.394;2024-02-26T12:36:33;98033.97;;;13.44;49.15
17311;BME280;8773;43.300;0.394;2024-02-26T12:39:02;98035.31;;;13.59;49.23
17311;BME280;8773;43.300;0.394;2024-02-26T12:41:29;98040.00;;;13.33;51.18
17311;BME280;8773;43.300;0.394;2024-02-26T12:43:57;98037.25;;;13.46;50.72
17311;BME280;8773;43.300;0.394;2024-02-26T12:46:26;98033.44;;;13.60;49.95
17311;BME280;8773;43.300;0.394;2024-02-26T12:48:55;98026.06;;;13.55;49.86
17311;BME280;8773;43.300;0.394;2024-02-26T12:51:23;98026.53;;;13.46;49.95
17311;BME280;8773;43.300;0.394;2024-02-26T12:53:52;98024.91;;;13.76;49.59
17311;BME280;8773;43.300;0.394;2024-02-26T12:56:20;98019.25;;;14.16;49.75
17311;BME280;8773;43.300;0.394;2024-02-26T12:58:50;98017.88;;;14.07;48.97
17311;BME280;8773;43.300;0.394;2024-02-26T13:01:22;98019.13;;;14.04;50.42
17311;BME280;8773;43.300;0.394;2024-02-26T13:03:52;98010.34;;;14.22;49.71
17311;BME280;8773;43.300;0.394;2024-02-26T13:06:20;98012.03;;;14.16;49.21
17311;BME280;8773;43.300;0.394;2024-02-26T13:08:48;98015.91;;;13.96;49.59
17311;BME280;8773;43.300;0.394;2024-02-26T13:11:16;98015.69;;;13.66;49.70
17311;BME280;8773;43.300;0.394;2024-02-26T13:13:47;98018.44;;;13.52;50.02
17311;BME280;8773;43.300;0.394;2024-02-26T13:16:15;98022.97;;;13.52;52.25
17311;BME280;8773;43.300;0.394;2024-02-26T13:18:42;98019.25;;;13.15;54.13